Time;durP1;ratioP1;P1;durP2;ratioP2;P2;SDS_P1;SDS_P2;PMS_P1;PMS_P2;Temp;Humidity;BMP_temperature;BMP_pressure;BME280_temperature;BME280_humidity;BME280_pressure;Samples;Min_cycle;Max_cycle;Signal;HPM_P1;HPM_P2
2022/01/05 00:00:09;;;;;;;0.25;0.25;;;;;;;6.83;82.05;98801.25;4968573;28;20464;-79
2022/01/05 00:02:35;;;;;;;1.00;0.33;;;;;;;6.81;82.57;98800.72;4969287;28;20431;-79
2022/01/05 00:05:01;;;;;;;0.53;0.50;;;;;;;6.72;83.40;98803.06;4962575;28;20407;-79
2022/01/05 00:07:27;;;;;;;0.30;0.30;;;;;;;6.71;83.22;98799.59;4973118;28;20894;-79
2022/01/05 00:09:52;;;;;;;0.93;0.37;;;;;;;6.71;83.50;98793.38;4969149;28;20551;-80
2022/01/05 00:12:17;;;;;;;0.90;0.20;;;;;;;6.72;83.05;98806.56;4946860;28;20514;-79
2022/01/05 00:14:43;;;;;;;0.30;0.20;;;;;;;6.72;83.43;98798.50;4961197;28;20867;-79
2022/01/05 00:17:08;;;;;;;0.30;0.10;;;;;;;6.85;83.38;98797.22;4972870;28;20400;-79
2022/01/05 00:19:34;;;;;;;0.63;0.27;;;;;;;6.92;81.96;98811.25;4968037;28;20426;-79
2022/01/05 00:22:01;;;;;;;0.60;0.30;;;;;;;6.95;82.57;98804.56;4970843;28;20561;-79
2022/01/05 00:24:26;;;;;;;0.75;0.43;;;;;;;7.00;81.97;98799.19;4972795;28;20487;-79
2022/01/05 00:26:55;;;;;;;0.17;0.17;;;;;;;6.89;82.53;98800.19;4972766;28;20487;-79
2022/01/05 00:29:20;;;;;;;0.60;0.50;;;;;;;6.79;83.82;98796.38;4969759;28;20423;-80
2022/01/05 00:31:45;;;;;;;1.90;0.20;;;;;;;6.87;83.74;98794.28;4971903;28;20396;-79
2022/01/05 00:34:11;;;;;;;0.20;0.20;;;;;;;6.92;82.21;98797.81;4968891;28;20408;-79
2022/01/05 00:36:36;;;;;;;0.23;0.20;;;;;;;7.02;82.08;98794.34;4970189;28;20447;-79
2022/01/05 00:39:02;;;;;;;1.10;0.10;;;;;;;6.85;83.19;98794.53;4969666;28;20404;-80
2022/01/05 00:41:28;;;;;;;0.20;0.20;;;;;;;6.81;83.94;98796.16;4968907;28;20459;-79
2022/01/05 00:43:53;;;;;;;0.00;0.00;;;;;;;6.83;83.60;98780.53;4955380;28;20408;-79
2022/01/05 00:46:18;;;;;;;0.52;0.13;;;;;;;6.84;83.34;98808.25;4971283;28;20404;-79
2022/01/05 00:48:44;;;;;;;0.80;0.10;;;;;;;6.75;83.97;98786.41;4972713;28;20427;-79
2022/01/05 00:51:10;;;;;;;0.07;0.07;;;;;;;6.68;84.59;98800.09;4972434;28;20534;-79
2022/01/05 00:53:36;;;;;;;0.10;0.10;;;;;;;6.77;83.95;98789.66;4971945;28;20431;-79
2022/01/05 00:56:02;;;;;;;0.07;0.07;;;;;;;6.73;84.59;98818.97;4972661;28;20486;-79
2022/01/05 00:58:27;;;;;;;0.00;0.00;;;;;;;6.76;84.26;98815.75;4949766;28;20416;-79
2022/01/05 01:00:52;;;;;;;1.20;0.10;;;;;;;6.69;84.82;98825.94;4972483;28;20452;-79
2022/01/05 01:03:18;;;;;;;0.50;0.10;;;;;;;6.68;84.79;98826.22;4975095;28;20432;-79
2022/01/05 01:05:43;;;;;;;0.10;0.10;;;;;;;6.70;85.08;98829.44;4969301;28;20425;-79
2022/01/05 01:08:09;;;;;;;0.20;0.20;;;;;;;6.64;85.55;98827.78;4967426;28;20419;-79
2022/01/05 01:10:35;;;;;;;0.60;0.50;;;;;;;6.67;84.94;98833.47;4952230;28;20794;-79
2022/01/05 01:13:01;;;;;;;0.50;0.50;;;;;;;6.60;85.87;98840.97;4946258;28;20420;-79
2022/01/05 01:15:26;;;;;;;0.80;0.40;;;;;;;6.55;87.03;98846.28;4976174;28;20388;-79
2022/01/05 01:17:51;;;;;;;0.50;0.50;;;;;;;6.54;86.85;98865.41;4955556;28;20413;-79
2022/01/05 01:20:16;;;;;;;0.30;0.30;;;;;;;6.55;87.42;98859.75;4976106;28;20827;-78
2022/01/05 01:22:43;;;;;;;0.17;0.17;;;;;;;6.43;87.47;98859.13;4958177;28;20564;-79
2022/01/05 01:25:09;;;;;;;0.65;0.40;;;;;;;6.43;88.23;98856.44;4973976;28;20418;-79
2022/01/05 01:27:35;;;;;;;0.40;0.40;;;;;;;6.51;88.07;98849.78;4974946;28;20424;-79
2022/01/05 01:30:00;;;;;;;0.38;0.30;;;;;;;6.53;87.67;98848.44;4974239;28;20887;-79
2022/01/05 01:32:26;;;;;;;0.85;0.30;;;;;;;6.45;87.87;98843.53;4975923;28;20397;-79
2022/01/05 01:34:51;;;;;;;1.10;0.40;;;;;;;6.41;88.08;98833.53;4968472;28;20479;-79
2022/01/05 01:37:17;;;;;;;1.00;0.30;;;;;;;6.39;88.43;98833.00;4972590;28;20412;-79
2022/01/05 01:39:42;;;;;;;0.45;0.40;;;;;;;6.46;88.18;98838.94;4957675;28;20483;-79
2022/01/05 01:42:07;;;;;;;0.20;0.20;;;;;;;6.41;88.39;98847.00;4975723;28;20408;-79
2022/01/05 01:44:33;;;;;;;0.30;0.30;;;;;;;6.42;88.83;98845.94;4975585;28;20795;-78
2022/01/05 01:46:58;;;;;;;0.40;0.40;;;;;;;6.45;88.20;98850.81;4974573;28;20811;-78
2022/01/05 01:49:23;;;;;;;0.33;0.33;;;;;;;6.52;88.16;98860.25;4958102;28;20458;-79
2022/01/05 01:51:49;;;;;;;0.40;0.40;;;;;;;6.49;88.17;98858.09;4958277;28;20400;-79
2022/01/05 01:54:14;;;;;;;0.80;0.73;;;;;;;6.58;86.76;98856.56;4967663;28;20787;-79
2022/01/05 01:56:44;;;;;;;0.30;0.30;;;;;;;6.53;87.40;98856.50;4973347;28;21266;-79
2022/01/05 01:59:10;;;;;;;0.50;0.50;;;;;;;6.48;88.17;98866.44;4975363;28;20747;-79
2022/01/05 02:01:35;;;;;;;0.65;0.32;;;;;;;6.59;87.00;98879.69;4965228;28;20406;-79
2022/01/05 02:04:00;;;;;;;1.20;0.63;;;;;;;6.55;86.90;98867.81;4975149;28;20495;-79
2022/01/05 02:06:26;;;;;;;0.80;0.80;;;;;;;6.60;86.99;98870.56;4974946;28;20934;-78
2022/01/05 02:08:51;;;;;;;1.20;0.60;;;;;;;6.62;86.83;98865.72;4969467;28;20887;-80
2022/01/05 02:11:16;;;;;;;1.30;0.60;;;;;;;6.56;87.22;98866.75;4966101;28;20413;-79
2022/01/05 02:13:42;;;;;;;4.60;1.53;;;;;;;6.55;87.16;98861.66;4969566;28;20416;-79
2022/01/05 02:16:08;;;;;;;1.80;1.00;;;;;;;6.48;87.12;98848.41;4974443;28;20412;-79
2022/01/05 02:21:07;;;;;;;0.70;0.60;;;;;;;6.48;86.74;98855.66;4975133;28;20396;-79
2022/01/05 02:23:34;;;;;;;0.63;0.63;;;;;;;6.41;87.20;98849.69;4970669;28;20401;-79
2022/01/05 02:26:00;;;;;;;1.77;0.80;;;;;;;6.41;87.58;98850.50;4962186;28;20439;-79
2022/01/05 02:28:26;;;;;;;1.25;0.77;;;;;;;6.36;87.65;98847.75;4974771;28;20423;-79
2022/01/05 02:30:52;;;;;;;0.73;0.73;;;;;;;6.47;87.11;98852.16;4974445;28;20427;-79
2022/01/05 02:33:18;;;;;;;0.70;0.70;;;;;;;6.52;86.93;98862.16;4957457;28;20392;-80
2022/01/05 02:35:44;;;;;;;0.90;0.80;;;;;;;6.38;87.82;98864.47;4953065;28;20459;-79
2022/01/05 02:38:09;;;;;;;0.60;0.60;;;;;;;6.46;87.27;98873.94;4957035;28;20779;-79
2022/01/05 02:40:35;;;;;;;0.70;0.70;;;;;;;6.38;88.31;98869.84;4973953;28;20427;-79
2022/01/05 02:43:00;;;;;;;1.80;0.67;;;;;;;6.43;88.25;98869.88;4974652;28;20408;-79
2022/01/05 02:45:25;;;;;;;0.90;0.80;;;;;;;6.53;87.49;98880.72;4971577;28;20410;-79
2022/01/05 02:47:51;;;;;;;0.93;0.93;;;;;;;6.55;87.73;98885.88;4974677;28;20404;-80
2022/01/05 02:50:16;;;;;;;1.10;1.00;;;;;;;6.55;88.13;98875.88;4973591;28;20416;-79
2022/01/05 02:52:42;;;;;;;1.25;1.25;;;;;;;6.41;89.12;98885.47;4974543;28;20887;-78
2022/01/05 02:55:08;;;;;;;1.10;1.10;;;;;;;6.39;89.68;98886.81;4968786;28;20501;-78
2022/01/05 02:57:34;;;;;;;2.15;1.00;;;;;;;6.51;88.54;98890.94;4974195;28;20405;-78
2022/01/05 02:59:59;;;;;;;1.17;1.00;;;;;;;6.43;89.12;98902.16;4974366;28;20392;-78
2022/01/05 03:02:25;;;;;;;1.90;0.83;;;;;;;6.46;89.63;98901.66;4982194;28;20405;-79
2022/01/05 03:04:50;;;;;;;0.90;0.80;;;;;;;6.38;89.83;98898.63;4972816;28;20412;-79
2022/01/05 03:07:16;;;;;;;0.80;0.80;;;;;;;6.40;89.57;98888.41;4972797;28;20768;-79
2022/01/05 03:09:42;;;;;;;0.50;0.50;;;;;;;6.45;89.16;98880.41;4975605;28;20420;-79
2022/01/05 03:12:08;;;;;;;0.45;0.45;;;;;;;6.52;89.14;98897.16;4973772;28;20400;-79
2022/01/05 03:14:34;;;;;;;0.68;0.68;;;;;;;6.45;88.51;98899.25;4971467;28;20875;-79
2022/01/05 03:16:59;;;;;;;1.60;1.50;;;;;;;6.43;88.33;98899.47;4973858;28;20499;-79
2022/01/05 03:19:24;;;;;;;2.07;1.00;;;;;;;6.53;88.11;98904.94;4956614;28;20852;-79
2022/01/05 03:21:50;;;;;;;1.40;0.93;;;;;;;6.52;87.42;98908.69;4967321;28;20402;-78
2022/01/05 03:24:15;;;;;;;0.80;0.80;;;;;;;6.48;88.10;98909.50;4970639;28;20408;-79
2022/01/05 03:26:40;;;;;;;1.30;0.83;;;;;;;6.44;88.94;98911.06;4973082;28;20795;-78
2022/01/05 03:29:06;;;;;;;2.33;0.90;;;;;;;6.26;89.10;98914.91;4973586;28;20430;-78
2022/01/05 03:31:31;;;;;;;1.67;1.00;;;;;;;6.39;89.63;98919.88;4973670;28;20717;-79
2022/01/05 03:33:56;;;;;;;1.50;0.80;;;;;;;6.43;89.06;98925.56;4965894;28;20504;-79
2022/01/05 03:36:22;;;;;;;1.30;0.60;;;;;;;6.27;89.83;98940.75;4972924;28;20412;-79
2022/01/05 03:38:47;;;;;;;0.73;0.70;;;;;;;6.31;90.04;98936.50;4973547;28;20502;-79
2022/01/05 03:41:12;;;;;;;1.00;0.80;;;;;;;6.37;89.80;98961.56;4969030;28;20487;-79
2022/01/05 03:43:38;;;;;;;1.70;1.00;;;;;;;6.34;89.75;98962.09;4953889;28;20419;-79
2022/01/05 03:46:03;;;;;;;0.82;0.82;;;;;;;6.39;89.82;98959.47;4973494;28;20403;-79
2022/01/05 03:48:29;;;;;;;1.10;1.03;;;;;;;6.47;89.46;98958.97;4972734;28;20412;-78
2022/01/05 03:50:54;;;;;;;1.50;1.20;;;;;;;6.44;89.32;98962.19;4973391;28;20484;-79
2022/01/05 03:53:19;;;;;;;6.40;4.90;;;;;;;6.40;89.37;98977.22;4952682;28;20956;-79
2022/01/05 03:55:46;;;;;;;2.70;1.97;;;;;;;6.47;88.86;98984.03;4967347;28;20486;-79
2022/01/05 03:58:12;;;;;;;9.85;3.70;;;;;;;6.41;89.31;98994.97;4955534;28;20424;-79
2022/01/05 04:00:41;;;;;;;3.20;1.90;;;;;;;6.37;89.03;99010.00;4973775;28;20455;-80
2022/01/05 04:03:06;;;;;;;1.88;1.40;;;;;;;6.34;89.18;99014.03;4960154;28;20844;-79
2022/01/05 04:05:32;;;;;;;5.10;2.87;;;;;;;6.37;89.27;99031.53;4951083;28;20424;-79
2022/01/05 04:07:57;;;;;;;7.50;3.60;;;;;;;6.33;89.54;99025.00;4973216;28;20480;-79
2022/01/05 04:10:23;;;;;;;3.85;2.20;;;;;;;6.35;88.99;99044.44;4972534;28;20431;-80
2022/01/05 04:12:48;;;;;;;8.48;4.65;;;;;;;6.36;89.36;99054.09;4951763;28;20424;-79
2022/01/05 04:15:15;;;;;;;1.17;1.13;;;;;;;6.41;89.04;99071.16;4972146;28;20423;-79
2022/01/05 04:17:40;;;;;;;4.30;1.10;;;;;;;6.42;88.79;99080.03;4941646;28;20449;-79
2022/01/05 04:20:06;;;;;;;0.60;0.60;;;;;;;6.43;88.88;99093.22;4972711;28;20434;-80
2022/01/05 04:22:32;;;;;;;0.75;0.75;;;;;;;6.37;88.63;99094.22;4959125;28;20421;-79
2022/01/05 04:24:57;;;;;;;1.10;0.80;;;;;;;6.36;88.06;99102.53;4972812;28;20960;-79
2022/01/05 04:27:23;;;;;;;0.57;0.57;;;;;;;6.43;87.91;99109.38;4970698;28;20471;-79
2022/01/05 04:29:48;;;;;;;1.15;0.40;;;;;;;6.45;86.74;99119.91;4968332;28;20452;-79
2022/01/05 04:32:13;;;;;;;0.40;0.20;;;;;;;6.46;85.51;99132.28;4971841;28;20408;-79
2022/01/05 04:34:39;;;;;;;0.53;0.30;;;;;;;6.47;84.13;99140.09;4972392;28;20400;-79
2022/01/05 04:37:05;;;;;;;1.00;0.30;;;;;;;6.41;83.02;99138.41;4970182;28;20420;-79
2022/01/05 04:39:31;;;;;;;0.60;0.30;;;;;;;6.45;82.72;99147.63;4970698;28;21006;-79
2022/01/05 04:41:56;;;;;;;1.10;0.40;;;;;;;6.45;81.66;99138.72;4971422;28;20423;-79
2022/01/05 04:44:21;;;;;;;0.30;0.30;;;;;;;6.49;80.59;99143.34;4955077;28;20405;-79
2022/01/05 04:46:46;;;;;;;1.20;0.20;;;;;;;6.31;80.45;99161.69;4970912;28;20415;-78
2022/01/05 04:49:12;;;;;;;0.60;0.20;;;;;;;6.31;80.19;99143.66;4972439;28;20407;-78
2022/01/05 04:51:38;;;;;;;0.47;0.20;;;;;;;6.39;79.56;99158.56;4971864;28;20464;-79
2022/01/05 04:54:03;;;;;;;0.20;0.10;;;;;;;6.34;79.22;99170.06;4972106;28;20499;-79
2022/01/05 04:56:29;;;;;;;0.60;0.30;;;;;;;6.36;77.84;99169.81;4970944;28;20499;-79
2022/01/05 04:58:56;;;;;;;0.70;0.07;;;;;;;6.22;78.42;99172.84;4952222;28;20518;-78
2022/01/05 05:01:22;;;;;;;0.10;0.10;;;;;;;6.25;77.93;99182.31;4971965;28;20846;-79
2022/01/05 05:03:47;;;;;;;0.20;0.20;;;;;;;6.30;78.20;99195.84;4966080;28;20487;-79
2022/01/05 05:06:12;;;;;;;1.20;0.20;;;;;;;6.28;77.35;99200.66;4959132;28;20824;-79
2022/01/05 05:08:40;;;;;;;0.67;0.20;;;;;;;6.15;78.36;99217.16;4951816;28;20428;-79
2022/01/05 05:11:06;;;;;;;0.15;0.10;;;;;;;5.90;79.04;99230.19;4968129;28;20404;-78
2022/01/05 05:13:31;;;;;;;0.43;0.20;;;;;;;5.70;80.52;99227.94;4972264;28;20407;-79
2022/01/05 05:15:56;;;;;;;0.20;0.20;;;;;;;5.73;80.94;99230.13;4971262;28;20856;-79
2022/01/05 05:18:21;;;;;;;0.40;0.40;;;;;;;5.79;81.30;99239.94;4969394;28;20420;-79
2022/01/05 05:20:47;;;;;;;0.80;0.30;;;;;;;5.74;81.51;99231.78;4968181;28;20396;-78
2022/01/05 05:23:12;;;;;;;0.45;0.45;;;;;;;5.74;81.37;99237.16;4954371;28;20404;-79
2022/01/05 05:25:37;;;;;;;0.20;0.20;;;;;;;5.71;81.65;99246.53;4972169;28;20400;-79
2022/01/05 05:28:03;;;;;;;0.47;0.20;;;;;;;5.68;80.92;99257.75;4972434;28;20875;-79
2022/01/05 05:30:29;;;;;;;1.40;0.40;;;;;;;5.79;81.16;99274.88;4952740;28;20921;-79
2022/01/05 05:32:55;;;;;;;1.30;0.65;;;;;;;5.74;80.87;99272.09;4954845;28;20900;-79
2022/01/05 05:35:21;;;;;;;1.15;0.30;;;;;;;5.61;80.57;99283.97;4946109;28;20772;-79
2022/01/05 05:37:47;;;;;;;1.10;0.47;;;;;;;5.63;80.16;99295.28;4971759;28;20411;-79
2022/01/05 05:40:12;;;;;;;0.60;0.40;;;;;;;5.73;80.62;99295.47;4967064;28;20420;-79
2022/01/05 05:42:38;;;;;;;0.90;0.40;;;;;;;5.62;79.92;99304.44;4953109;28;20482;-79
2022/01/05 05:45:04;;;;;;;0.20;0.20;;;;;;;5.57;79.48;99309.69;4971945;28;20419;-79
2022/01/05 05:47:30;;;;;;;0.20;0.10;;;;;;;5.65;79.78;99317.38;4972066;28;20407;-79
2022/01/05 05:49:55;;;;;;;0.30;0.30;;;;;;;5.42;79.57;99320.16;4971233;28;20420;-79
2022/01/05 05:52:20;;;;;;;0.50;0.22;;;;;;;5.35;80.20;99337.47;4975515;28;20494;-79
2022/01/05 05:54:46;;;;;;;1.70;0.50;;;;;;;5.35;80.66;99351.72;4974706;28;20411;-79
2022/01/05 05:57:11;;;;;;;0.90;0.90;;;;;;;5.50;79.80;99348.53;4957795;28;20492;-79
2022/01/05 05:59:36;;;;;;;0.50;0.50;;;;;;;5.56;79.52;99356.44;4974421;28;20412;-79
2022/01/05 06:02:02;;;;;;;1.30;0.57;;;;;;;5.45;78.95;99367.22;4956191;28;20412;-79
2022/01/05 06:04:27;;;;;;;0.80;0.80;;;;;;;5.33;77.81;99364.56;4974683;28;20963;-79
2022/01/05 06:06:52;;;;;;;0.57;0.40;;;;;;;5.37;76.81;99363.03;4975226;28;20404;-80
2022/01/05 06:09:18;;;;;;;1.87;0.50;;;;;;;5.08;76.60;99377.44;4972735;28;20416;-79
2022/01/05 06:11:43;;;;;;;1.70;0.60;;;;;;;4.95;76.89;99389.25;4959114;28;20873;-79
2022/01/05 06:14:08;;;;;;;0.87;0.43;;;;;;;4.91;76.39;99393.44;4957831;28;20446;-79
2022/01/05 06:16:34;;;;;;;1.60;0.70;;;;;;;5.01;77.20;99395.53;4957216;28;20404;-79
2022/01/05 06:18:59;;;;;;;1.10;0.70;;;;;;;4.84;76.52;99402.69;4974647;28;20396;-79
2022/01/05 06:21:24;;;;;;;1.77;1.20;;;;;;;4.92;76.49;99411.19;4962774;28;20842;-79
2022/01/05 06:23:50;;;;;;;3.47;0.70;;;;;;;4.95;76.53;99418.78;4974678;28;20408;-79
2022/01/05 06:26:15;;;;;;;2.60;0.98;;;;;;;4.85;76.73;99426.59;4941578;28;20436;-79
2022/01/05 06:28:40;;;;;;;4.23;1.77;;;;;;;4.86;75.99;99438.97;4972247;28;20425;-79
2022/01/05 06:31:06;;;;;;;4.77;1.73;;;;;;;4.64;76.71;99438.72;4957463;28;20792;-79
2022/01/05 06:33:31;;;;;;;3.42;1.30;;;;;;;4.72;77.19;99448.28;4959883;28;20480;-79
2022/01/05 06:35:56;;;;;;;3.23;1.50;;;;;;;4.76;75.74;99454.84;4973870;28;20420;-79
2022/01/05 06:38:21;;;;;;;4.43;1.47;;;;;;;4.77;75.55;99458.34;4969479;28;20418;-79
2022/01/05 06:40:47;;;;;;;3.63;1.97;;;;;;;4.74;76.38;99464.19;4969513;28;20424;-79
2022/01/05 06:43:13;;;;;;;2.67;1.07;;;;;;;4.45;76.40;99473.91;4973789;28;20905;-79
2022/01/05 06:45:39;;;;;;;1.90;1.20;;;;;;;4.40;76.69;99479.97;4974481;28;20400;-80
2022/01/05 06:48:04;;;;;;;3.93;1.30;;;;;;;4.34;76.07;99490.78;4955911;28;20903;-78
2022/01/05 06:50:29;;;;;;;4.07;1.70;;;;;;;4.28;76.65;99503.22;4954717;28;20424;-79
2022/01/05 06:52:57;;;;;;;4.27;1.20;;;;;;;4.49;76.49;99502.72;4973497;28;20415;-79
2022/01/05 06:55:24;;;;;;;1.90;1.40;;;;;;;4.55;76.37;99512.53;4954357;28;20428;-79
2022/01/05 06:57:51;;;;;;;3.70;1.65;;;;;;;4.49;76.71;99516.16;4973152;28;20408;-79
2022/01/05 07:00:17;;;;;;;4.67;1.83;;;;;;;4.61;76.41;99517.00;4965724;28;20506;-78
2022/01/05 07:02:42;;;;;;;2.92;1.88;;;;;;;4.64;75.69;99521.09;4971108;28;20433;-79
2022/01/05 07:05:08;;;;;;;5.47;1.93;;;;;;;4.49;76.25;99526.06;4976574;28;20412;-78
2022/01/05 07:07:33;;;;;;;3.37;1.63;;;;;;;4.38;76.53;99535.69;4956471;28;20400;-79
2022/01/05 07:09:58;;;;;;;3.50;1.63;;;;;;;4.32;76.24;99541.97;4950988;28;20427;-79
2022/01/05 07:12:23;;;;;;;1.85;1.27;;;;;;;4.24;75.92;99542.28;4961197;28;20404;-79
2022/01/05 07:14:49;;;;;;;3.10;1.50;;;;;;;4.16;76.15;99553.31;4973775;28;20404;-78
2022/01/05 07:17:14;;;;;;;8.30;3.50;;;;;;;4.27;76.50;99557.09;4973956;28;20404;-79
2022/01/05 07:19:40;;;;;;;4.60;1.83;;;;;;;4.23;76.24;99559.41;4979931;28;20811;-79
2022/01/05 07:22:05;;;;;;;4.07;2.00;;;;;;;4.17;76.79;99568.38;4969306;28;20435;-78
2022/01/05 07:24:30;;;;;;;3.53;1.60;;;;;;;4.27;76.36;99578.56;4963997;28;20424;-79
2022/01/05 07:26:56;;;;;;;5.10;1.77;;;;;;;4.39;76.15;99579.44;4977396;28;20410;-78
2022/01/05 07:29:21;;;;;;;5.07;2.83;;;;;;;4.33;76.81;99589.22;4970178;28;20815;-81
2022/01/05 07:31:46;;;;;;;6.57;2.70;;;;;;;4.29;77.12;99598.75;4960313;28;20424;-84
2022/01/05 07:34:12;;;;;;;6.45;2.42;;;;;;;4.39;77.68;99598.22;4974355;28;20543;-78
2022/01/05 07:36:39;;;;;;;4.43;1.70;;;;;;;4.38;76.63;99604.63;4968847;28;20416;-79
2022/01/05 07:39:05;;;;;;;4.55;2.63;;;;;;;4.37;76.49;99611.03;4970392;28;20498;-78
2022/01/05 07:41:31;;;;;;;4.97;1.70;;;;;;;4.09;77.81;99616.91;4974453;28;20402;-78
2022/01/05 07:43:56;;;;;;;4.18;1.60;;;;;;;3.91;78.40;99631.16;4972599;28;20407;-78
2022/01/05 07:46:22;;;;;;;6.90;1.50;;;;;;;3.83;78.56;99622.56;4972118;28;20404;-77
2022/01/05 07:48:47;;;;;;;4.20;1.67;;;;;;;3.83;78.70;99633.28;4954851;28;20903;-77
2022/01/05 07:51:12;;;;;;;5.30;2.20;;;;;;;3.94;78.54;99629.88;4972163;28;20422;-78
2022/01/05 07:53:38;;;;;;;1.47;1.13;;;;;;;4.04;77.86;99643.59;4959237;28;20428;-78
2022/01/05 07:56:03;;;;;;;3.20;1.63;;;;;;;3.98;78.14;99649.84;4972904;28;20423;-78
2022/01/05 07:58:29;;;;;;;3.80;1.37;;;;;;;3.97;77.78;99658.91;4963485;28;20441;-78
2022/01/05 08:00:54;;;;;;;4.33;1.73;;;;;;;3.95;77.25;99659.13;4946004;28;20408;-78
2022/01/05 08:03:19;;;;;;;4.93;1.60;;;;;;;3.93;76.13;99671.94;4971853;28;20451;-78
2022/01/05 08:05:45;;;;;;;6.23;1.77;;;;;;;3.99;75.85;99667.56;4966559;28;20425;-78
2022/01/05 08:08:10;;;;;;;4.10;2.05;;;;;;;3.86;76.86;99676.53;4972843;28;20392;-77
2022/01/05 08:10:35;;;;;;;5.57;2.83;;;;;;;4.04;77.21;99678.44;4970016;28;20420;-78
2022/01/05 08:13:00;;;;;;;6.90;2.33;;;;;;;4.22;76.78;99680.31;4951923;28;20805;-78
2022/01/05 08:15:26;;;;;;;2.88;1.70;;;;;;;4.15;77.16;99685.75;4970301;28;20412;-78
2022/01/05 08:17:51;;;;;;;4.73;1.90;;;;;;;4.13;77.40;99693.19;4963529;28;20412;-78
2022/01/05 08:20:17;;;;;;;4.47;1.83;;;;;;;4.00;78.03;99690.66;4971389;28;20461;-77
2022/01/05 08:22:45;;;;;;;7.27;2.63;;;;;;;4.09;77.89;99692.00;4962820;28;20426;-78
2022/01/05 08:25:15;;;;;;;5.90;2.08;;;;;;;4.22;77.40;99694.53;4954162;28;20419;-78
2022/01/05 08:27:46;;;;;;;5.18;1.88;;;;;;;4.27;76.54;99700.06;4970971;28;21098;-78
2022/01/05 08:30:12;;;;;;;3.22;1.95;;;;;;;4.29;76.07;99699.84;4972286;28;20523;-78
2022/01/05 08:32:38;;;;;;;4.68;1.90;;;;;;;4.19;76.94;99703.84;4951942;28;20409;-77
2022/01/05 08:35:04;;;;;;;6.05;2.08;;;;;;;4.24;76.44;99705.88;4958872;28;20408;-78
2022/01/05 08:37:29;;;;;;;2.85;1.80;;;;;;;4.13;76.72;99714.66;4950520;28;20420;-79
2022/01/05 08:39:54;;;;;;;7.47;2.30;;;;;;;4.25;75.65;99706.72;4968537;28;20459;-79
2022/01/05 08:42:19;;;;;;;4.80;2.50;;;;;;;4.42;75.75;99705.88;4972415;28;20399;-79
2022/01/05 08:44:45;;;;;;;9.63;2.73;;;;;;;4.21;75.74;99708.19;4971603;28;20940;-80
2022/01/05 08:47:10;;;;;;;9.73;3.93;;;;;;;4.09;76.32;99711.59;4961301;28;20414;-79
2022/01/05 08:49:35;;;;;;;7.27;2.60;;;;;;;4.40;75.70;99712.53;4953658;28;20412;-78
2022/01/05 08:52:00;;;;;;;7.80;2.87;;;;;;;4.49;75.06;99713.84;4953813;28;20837;-78
2022/01/05 08:54:26;;;;;;;7.63;2.40;;;;;;;4.18;75.36;99720.19;4969757;28;20427;-78
2022/01/05 08:56:51;;;;;;;9.87;2.97;;;;;;;4.43;74.87;99714.75;4970800;28;20472;-78
2022/01/05 08:59:17;;;;;;;9.00;2.55;;;;;;;4.44;73.76;99725.28;4970991;28;20427;-78
2022/01/05 09:01:43;;;;;;;11.07;3.10;;;;;;;4.58;73.61;99717.88;4970416;28;20407;-78
2022/01/05 09:04:09;;;;;;;5.03;2.53;;;;;;;4.37;73.78;99727.22;4972061;28;20578;-79
2022/01/05 09:06:34;;;;;;;8.13;2.73;;;;;;;4.27;73.74;99742.16;4950757;28;20499;-79
2022/01/05 09:08:59;;;;;;;7.63;2.73;;;;;;;4.12;73.75;99740.63;4969195;28;20412;-78
2022/01/05 09:11:27;;;;;;;11.90;3.50;;;;;;;3.97;72.89;99742.84;4966649;28;20421;-79
2022/01/05 09:13:52;;;;;;;10.63;3.08;;;;;;;3.90;73.03;99749.28;4970865;28;20396;-79
2022/01/05 09:16:18;;;;;;;10.23;2.85;;;;;;;4.16;71.96;99757.94;4954057;28;20445;-79
2022/01/05 09:18:44;;;;;;;9.05;3.10;;;;;;;4.34;70.87;99753.66;4969911;28;20466;-79
2022/01/05 09:21:09;;;;;;;7.20;2.67;;;;;;;4.64;69.88;99763.41;4971983;28;20439;-78
2022/01/05 09:23:35;;;;;;;8.83;3.07;;;;;;;4.76;70.11;99768.06;4973410;28;20431;-78
2022/01/05 09:26:00;;;;;;;9.27;2.97;;;;;;;4.83;69.00;99758.06;4947985;28;20445;-78
2022/01/05 09:28:26;;;;;;;8.18;2.80;;;;;;;4.92;68.63;99762.91;4975767;28;20475;-78
2022/01/05 09:30:52;;;;;;;9.90;3.60;;;;;;;4.88;68.37;99775.13;4971581;28;20491;-78
2022/01/05 09:33:17;;;;;;;8.80;2.15;;;;;;;4.78;68.60;99774.00;4974747;28;20476;-78
2022/01/05 09:35:44;;;;;;;10.15;2.85;;;;;;;4.83;68.26;99774.19;4969748;28;20488;-79
2022/01/05 09:38:22;;;;;;;9.38;2.38;;;;;;;4.90;68.56;99778.44;4973054;28;20415;-79
2022/01/05 09:43:51;;;;;;;10.57;3.20;;;;;;;4.45;68.52;99777.03;4973891;28;20764;-79
2022/01/05 09:46:30;;;;;;;17.35;3.88;;;;;;;4.43;69.38;99779.97;4970700;28;20578;-79
2022/01/05 09:49:08;;;;;;;9.50;2.60;;;;;;;4.68;67.57;99782.59;4969804;28;20427;-80
2022/01/05 09:51:34;;;;;;;12.07;3.20;;;;;;;4.74;66.84;99779.03;4970008;28;20404;-79
2022/01/05 09:54:01;;;;;;;6.20;2.03;;;;;;;4.91;68.11;99784.59;4972486;28;20776;-79
2022/01/05 09:56:30;;;;;;;10.15;2.05;;;;;;;5.04;66.85;99785.25;4967270;28;20426;-79
2022/01/05 09:59:00;;;;;;;9.13;2.70;;;;;;;5.18;66.20;99778.69;4971287;28;20435;-80
2022/01/05 10:01:26;;;;;;;5.75;1.95;;;;;;;5.06;65.63;99779.69;4973470;28;20411;-78
2022/01/05 10:03:51;;;;;;;12.00;2.53;;;;;;;5.16;63.92;99777.28;4968402;28;20412;-78
2022/01/05 10:06:17;;;;;;;9.57;2.20;;;;;;;5.33;63.07;99772.09;4968976;28;20416;-79
2022/01/05 10:08:43;;;;;;;11.13;2.70;;;;;;;5.20;64.11;99791.91;4972186;28;20408;-79
2022/01/05 10:11:10;;;;;;;8.80;2.55;;;;;;;5.09;64.46;99796.16;4965780;28;20523;-79
2022/01/05 10:13:35;;;;;;;10.35;2.65;;;;;;;4.68;64.94;99794.16;4945301;28;20795;-79
2022/01/05 10:16:01;;;;;;;9.33;2.63;;;;;;;4.53;65.89;99796.38;4970735;28;20423;-78
2022/01/05 10:18:38;;;;;;;11.38;2.35;;;;;;;4.36;66.09;99805.22;4974107;28;20396;-79
2022/01/05 10:21:06;;;;;;;10.65;2.58;;;;;;;4.36;66.03;99813.25;4973020;28;20435;-78
2022/01/05 10:23:57;;;;;;;8.40;2.53;;;;;;;4.54;65.74;99810.63;4956080;28;20431;-78
2022/01/05 10:26:36;;;;;;;11.25;2.67;;;;;;;4.40;66.89;99817.97;4965062;28;20439;-78
2022/01/05 10:29:13;;;;;;;10.15;3.08;;;;;;;4.39;66.41;99819.00;4960095;28;20425;-78
2022/01/05 10:31:40;;;;;;;9.27;2.67;;;;;;;4.47;66.98;99824.09;4963990;28;20484;-78
2022/01/05 10:34:20;;;;;;;13.60;3.10;;;;;;;4.19;67.11;99829.91;4966548;28;20482;-77
2022/01/05 10:36:50;;;;;;;9.37;2.97;;;;;;;4.27;66.82;99831.50;4973701;28;20510;-78
2022/01/05 10:39:20;;;;;;;14.13;3.95;;;;;;;4.39;67.43;99831.59;4965189;28;20418;-78
2022/01/05 10:41:46;;;;;;;8.80;2.55;;;;;;;4.43;67.31;99836.31;4952492;28;20475;-78
2022/01/05 10:44:14;;;;;;;13.68;3.15;;;;;;;4.70;66.75;99842.25;4971057;28;20443;-78
2022/01/05 10:46:46;;;;;;;14.83;2.83;;;;;;;4.69;65.82;99840.59;4968187;28;21007;-78
2022/01/05 10:49:31;;;;;;;9.17;3.07;;;;;;;4.70;65.92;99851.13;4972938;28;20890;-78
2022/01/05 10:52:00;;;;;;;14.95;3.40;;;;;;;4.76;64.11;99846.72;4973935;28;20737;-79
2022/01/05 10:54:28;;;;;;;9.25;2.20;;;;;;;4.62;64.26;99862.13;4972537;28;20415;-79
2022/01/05 10:56:54;;;;;;;13.25;3.60;;;;;;;4.59;64.71;99856.38;4958305;28;20420;-75
2022/01/05 10:59:33;;;;;;;32.13;4.18;;;;;;;4.68;65.09;99847.81;4973918;28;20400;-75
2022/01/05 11:01:59;;;;;;;14.57;2.92;;;;;;;4.79;64.57;99846.28;4961664;28;20400;-78
2022/01/05 11:04:24;;;;;;;10.67;3.10;;;;;;;4.80;62.39;99849.78;4973140;28;20404;-79
2022/01/05 11:06:54;;;;;;;7.93;2.97;;;;;;;4.52;64.54;99855.63;4946627;28;20451;-78
2022/01/05 11:09:21;;;;;;;11.80;2.92;;;;;;;4.22;64.63;99851.94;4972212;28;20424;-80
2022/01/05 11:11:49;;;;;;;13.10;2.65;;;;;;;3.98;64.82;99851.72;4953777;28;20903;-77
2022/01/05 11:14:29;;;;;;;12.15;2.35;;;;;;;4.23;64.42;99857.09;4946608;28;20444;-78
2022/01/05 11:16:58;;;;;;;9.57;3.08;;;;;;;4.33;64.24;99860.13;4950546;28;20415;-79
2022/01/05 11:19:33;;;;;;;12.90;3.33;;;;;;;4.55;64.41;99861.38;4964506;28;20424;-78
2022/01/05 11:22:06;;;;;;;9.15;3.60;;;;;;;4.59;64.33;99859.88;4962736;28;20408;-77
2022/01/05 11:24:38;;;;;;;9.82;3.53;;;;;;;4.62;63.67;99862.13;4971268;28;20401;-78
2022/01/05 11:27:06;;;;;;;13.55;3.50;;;;;;;4.74;63.76;99869.47;4973380;28;20543;-78
2022/01/05 11:29:33;;;;;;;8.63;2.88;;;;;;;4.68;63.02;99861.25;4973557;28;20466;-78
2022/01/05 11:32:01;;;;;;;7.90;2.77;;;;;;;4.68;63.20;99865.78;4971190;28;20894;-77
2022/01/05 11:34:29;;;;;;;14.93;3.78;;;;;;;4.55;63.55;99868.59;4970342;28;20415;-78
2022/01/05 11:36:54;;;;;;;9.45;2.92;;;;;;;4.29;65.08;99866.94;4970616;28;20891;-79
2022/01/05 11:39:20;;;;;;;10.23;2.90;;;;;;;4.48;65.78;99862.50;4956110;28;20420;-78
2022/01/05 11:41:48;;;;;;;9.53;3.07;;;;;;;4.85;64.36;99861.50;4972582;28;20403;-79